createdAt,value
2023-05-22T00:00:18.070Z,15.8787
2023-05-22T00:01:19.896Z,15.9131
2023-05-22T00:02:22.168Z,15.8665
2023-05-22T00:03:23.345Z,15.8106
2023-05-22T00:04:25.318Z,15.8037
2023-05-22T00:05:27.283Z,15.7788
2023-05-22T00:07:29.177Z,15.8676
2023-05-22T00:10:32.212Z,15.8081
2023-05-22T00:11:34.266Z,15.7515
2023-05-22T00:16:40.560Z,15.5155
2023-05-22T00:17:40.879Z,15.5791
2023-05-22T00:18:42.112Z,15.4993
2023-05-22T00:19:43.983Z,15.2433
2023-05-22T00:20:45.204Z,15.2189
2023-05-22T00:21:47.427Z,15.0783
2023-05-22T00:22:48.670Z,14.9061
2023-05-22T00:23:50.306Z,14.7514
2023-05-22T00:24:51.495Z,14.6403
2023-05-22T00:25:52.433Z,14.5844
2023-05-22T00:26:54.325Z,14.4832
2023-05-22T00:28:07.312Z,14.3601
2023-05-22T00:29:27.852Z,14.1868
2023-05-22T00:30:28.489Z,14.1334
2023-05-22T00:31:31.320Z,14.0522
2023-05-22T00:34:35.448Z,13.9633
2023-05-22T00:35:35.649Z,13.9129
2023-05-22T00:37:38.550Z,13.8606
2023-05-22T00:38:40.368Z,13.8134
2023-05-22T00:39:42.605Z,13.8437
2023-05-22T00:40:43.806Z,13.8222
2023-05-22T00:48:30.617Z,13.6693
2023-05-22T00:49:31.210Z,13.6995
2023-05-22T00:50:31.607Z,13.7853
2023-05-22T00:51:35.738Z,13.9029
2023-05-22T00:58:41.915Z,14.2233
2023-05-22T00:59:44.082Z,14.3539
2023-05-22T01:00:44.670Z,14.3389
2023-05-22T01:01:46.831Z,14.3057
2023-05-22T01:09:25.029Z,14.4751
2023-05-22T01:10:25.664Z,14.3960
2023-05-22T01:11:27.488Z,14.5232
2023-05-22T01:12:28.849Z,14.4878
2023-05-22T01:13:30.093Z,14.4587
2023-05-22T01:16:02.539Z,14.5885
2023-05-22T01:17:03.789Z,14.5723
2023-05-22T01:19:06.685Z,14.6566
2023-05-22T01:20:08.670Z,14.5486
2023-05-22T01:21:09.040Z,14.5144
2023-05-22T01:22:10.274Z,14.3081
2023-05-22T01:23:10.560Z,14.2503
2023-05-22T01:24:12.790Z,14.2614
2023-05-22T01:25:14.160Z,14.3041
2023-05-22T01:26:15.816Z,14.2266
2023-05-22T01:27:16.967Z,14.1102
2023-05-22T01:28:19.039Z,14.3434
2023-05-22T01:29:20.299Z,14.3466
2023-05-22T01:30:21.698Z,14.1351
2023-05-22T01:31:21.965Z,14.1336
2023-05-22T01:32:23.003Z,14.2376
2023-05-22T01:33:24.809Z,14.0734
2023-05-22T01:34:26.863Z,13.9705
2023-05-22T01:35:28.939Z,14.0317
2023-05-22T01:36:30.809Z,14.2391
2023-05-22T01:37:32.089Z,14.2644
2023-05-22T01:38:33.782Z,14.1238
2023-05-22T01:39:35.038Z,14.1813
2023-05-22T01:40:36.693Z,14.3281
2023-05-22T01:41:38.497Z,13.9861
2023-05-22T01:42:40.335Z,13.8565
2023-05-22T01:43:41.105Z,13.6158
2023-05-22T01:44:40.480Z,13.4788
2023-05-22T01:45:41.047Z,13.6178
2023-05-22T01:46:41.221Z,13.6008
2023-05-22T01:47:42.244Z,13.6856
2023-05-22T01:48:44.872Z,13.7186
2023-05-22T01:49:46.357Z,13.7863
2023-05-22T01:50:48.371Z,13.7752
2023-05-22T01:51:49.576Z,13.9901
2023-05-22T01:52:51.444Z,14.0004
2023-05-22T01:53:53.192Z,13.7403
2023-05-22T01:54:55.326Z,13.5904
2023-05-22T01:57:58.667Z,13.5054
2023-05-22T02:06:08.152Z,13.3876
2023-05-22T02:08:10.036Z,13.1208
2023-05-22T02:09:11.558Z,13.0146
2023-05-22T02:11:12.103Z,12.9765
2023-05-22T02:12:12.769Z,13.0193
2023-05-22T02:13:13.007Z,13.0886
2023-05-22T02:14:14.798Z,12.8602
2023-05-22T02:16:16.681Z,12.8865
2023-05-22T02:18:18.787Z,13.0316
2023-05-22T02:19:20.144Z,13.0851
2023-05-22T02:20:22.953Z,13.1520
2023-05-22T02:21:23.575Z,13.4642
2023-05-22T02:22:24.651Z,13.5663
2023-05-22T02:23:26.053Z,13.2668
2023-05-22T02:24:26.802Z,13.3814
2023-05-22T02:25:28.896Z,13.3915
2023-05-22T02:26:31.106Z,13.4304
2023-05-22T02:27:32.156Z,13.2560
2023-05-22T02:28:34.266Z,13.1258
2023-05-22T02:29:35.295Z,13.1566
2023-05-22T02:30:36.907Z,13.0833
2023-05-22T02:31:38.724Z,13.1290
2023-05-22T02:32:39.467Z,13.2673
2023-05-22T02:33:40.906Z,13.4253
2023-05-22T02:34:42.693Z,13.3653
2023-05-22T02:35:44.186Z,13.4337
2023-05-22T02:36:45.836Z,13.4297
2023-05-22T02:37:47.244Z,13.4168
2023-05-22T02:38:49.003Z,13.4345
2023-05-22T02:39:49.720Z,13.3900
2023-05-22T02:42:53.770Z,12.9092
2023-05-22T02:43:53.734Z,12.9587
2023-05-22T02:44:55.369Z,13.0878
2023-05-22T02:45:57.454Z,13.0645
2023-05-22T02:46:59.075Z,13.3371
2023-05-22T02:48:00.207Z,13.3674
2023-05-22T02:49:01.646Z,13.3675
2023-05-22T02:50:02.117Z,13.2425
2023-05-22T02:51:02.190Z,13.1920
2023-05-22T02:52:04.600Z,13.3224
2023-05-22T02:53:05.564Z,13.6877
2023-05-22T02:54:07.224Z,13.6143
2023-05-22T02:55:08.903Z,13.5931
2023-05-22T02:56:09.077Z,13.5718
2023-05-22T02:57:10.221Z,13.5470
2023-05-22T02:58:25.577Z,13.3993
2023-05-22T02:59:43.065Z,13.2786
2023-05-22T03:00:44.077Z,13.2384
2023-05-22T03:01:46.204Z,13.0568
2023-05-22T03:03:48.670Z,13.0485
2023-05-22T03:04:50.226Z,12.9928
2023-05-22T03:05:50.922Z,13.3363
2023-05-22T03:06:52.220Z,13.4914
2023-05-22T03:07:53.626Z,13.4925
2023-05-22T03:10:54.031Z,13.2704
2023-05-22T03:11:55.233Z,13.2493
2023-05-22T03:12:55.347Z,13.0752
2023-05-22T03:13:57.501Z,12.9424
2023-05-22T03:14:58.948Z,12.8014
2023-05-22T03:16:00.410Z,12.7502
2023-05-22T03:17:02.259Z,12.6616
2023-05-22T03:18:03.621Z,12.6043
2023-05-22T03:19:05.403Z,12.6997
2023-05-22T03:21:06.353Z,12.7459
2023-05-22T03:22:08.281Z,12.7819
2023-05-22T03:23:09.505Z,12.7529
2023-05-22T03:24:10.128Z,12.7502
2023-05-22T03:25:10.808Z,12.7283
2023-05-22T03:26:12.757Z,12.8137
2023-05-22T03:27:13.862Z,12.9016
2023-05-22T03:28:16.047Z,12.8617
2023-05-22T03:29:16.364Z,12.6920
2023-05-22T03:30:16.579Z,12.5988
2023-05-22T03:31:18.753Z,12.6199
2023-05-22T03:32:20.356Z,12.6946
2023-05-22T03:33:20.989Z,12.5263
2023-05-22T03:35:21.871Z,12.3879
2023-05-22T03:36:23.031Z,12.1951
2023-05-22T03:37:23.823Z,12.2536
2023-05-22T03:38:25.756Z,12.6604
2023-05-22T03:39:26.893Z,12.6920
2023-05-22T03:40:28.307Z,12.7454
2023-05-22T03:41:28.717Z,12.6571
2023-05-22T03:42:30.385Z,12.7174
2023-05-22T03:43:31.028Z,12.5496
2023-05-22T03:44:32.129Z,12.4604
2023-05-22T03:45:37.627Z,12.3756
2023-05-22T03:51:40.921Z,12.2592
2023-05-22T03:52:41.310Z,12.3475
2023-05-22T03:53:42.715Z,12.4767
2023-05-22T03:54:44.358Z,12.5369
2023-05-22T03:55:46.309Z,12.5159
2023-05-22T03:56:48.892Z,12.4786
2023-05-22T04:04:55.899Z,13.0555
2023-05-22T04:05:58.219Z,13.0439
2023-05-22T04:06:59.460Z,12.7945
2023-05-22T04:08:01.186Z,12.6273
2023-05-22T04:09:02.158Z,12.6613
2023-05-22T04:10:02.223Z,12.6746
2023-05-22T04:11:02.581Z,12.6932
2023-05-22T04:12:03.822Z,12.5997
2023-05-22T04:13:04.290Z,12.6810
2023-05-22T04:14:07.615Z,12.6534
2023-05-22T04:15:09.033Z,12.7789
2023-05-22T04:16:09.685Z,12.8381
2023-05-22T04:17:12.054Z,12.7794
2023-05-22T04:18:12.428Z,12.7499
2023-05-22T04:19:12.820Z,12.6907
2023-05-22T04:20:15.437Z,12.6888
2023-05-22T04:21:16.386Z,12.7208
2023-05-22T04:22:17.956Z,12.7767
2023-05-22T04:23:20.302Z,12.8561
2023-05-22T04:24:21.151Z,12.7796
2023-05-22T04:25:23.851Z,12.8003
2023-05-22T04:27:25.066Z,12.8044
2023-05-22T04:29:29.197Z,12.9308
2023-05-22T04:30:31.158Z,13.0276
2023-05-22T04:31:33.165Z,13.0913
2023-05-22T04:32:35.210Z,13.0834
2023-05-22T04:40:42.088Z,13.1849
2023-05-22T04:41:44.412Z,13.1654
2023-05-22T04:42:46.245Z,13.0650
2023-05-22T04:43:48.236Z,12.9969
2023-05-22T04:44:49.344Z,12.9470
2023-05-22T04:45:51.745Z,12.9089
2023-05-22T04:51:58.945Z,12.8437
2023-05-22T04:53:00.737Z,12.9405
2023-05-22T04:54:02.713Z,13.0498
2023-05-22T04:55:04.585Z,13.0644
2023-05-22T04:56:03.977Z,13.0943
2023-05-22T04:57:06.177Z,13.1520
2023-05-22T04:59:07.520Z,13.0388
2023-05-22T05:00:08.935Z,13.1943
2023-05-22T05:01:10.329Z,13.3739
2023-05-22T05:02:12.371Z,13.3837
2023-05-22T05:03:13.538Z,13.4312
2023-05-22T05:04:13.863Z,13.5283
2023-05-22T05:05:15.219Z,13.4343
2023-05-22T05:06:16.677Z,13.4199
2023-05-22T05:07:19.051Z,13.6476
2023-05-22T05:08:21.056Z,13.8598
2023-05-22T05:16:29.915Z,15.4299
2023-05-22T05:17:30.165Z,15.5319
2023-05-22T05:18:32.343Z,15.8034
2023-05-22T05:20:33.672Z,15.5273
2023-05-22T05:21:35.460Z,15.6139
2023-05-22T05:22:36.022Z,15.5820
2023-05-22T05:23:38.136Z,15.7780
2023-05-22T05:24:40.110Z,16.1352
2023-05-22T05:25:41.978Z,16.1691
2023-05-22T05:26:43.148Z,16.5733
2023-05-22T05:27:44.457Z,16.2298
2023-05-22T05:28:46.166Z,16.1792
2023-05-22T05:29:46.653Z,16.0553
2023-05-22T05:30:48.014Z,16.0658
2023-05-22T05:31:50.051Z,16.2216
2023-05-22T05:33:51.606Z,16.3583
2023-05-22T05:35:54.401Z,16.5196
2023-05-22T05:36:54.931Z,16.9955
2023-05-22T05:38:57.153Z,17.5326
2023-05-22T05:39:57.428Z,17.5736
2023-05-22T05:40:59.293Z,17.7351
2023-05-22T05:42:00.918Z,17.6336
2023-05-22T05:43:01.897Z,17.6322
2023-05-22T05:45:02.211Z,17.6918
2023-05-22T05:46:02.343Z,17.2163
2023-05-22T05:48:05.137Z,17.8700
2023-05-22T05:49:06.641Z,18.3632
2023-05-22T05:50:07.146Z,18.5547
2023-05-22T05:51:09.355Z,18.3758
2023-05-22T05:52:10.850Z,18.4311
2023-05-22T05:55:14.678Z,18.2337
2023-05-22T05:56:15.084Z,18.1273
2023-05-22T05:57:16.233Z,18.2196
2023-05-22T05:58:17.435Z,17.9765
2023-05-22T05:59:18.947Z,17.8288
2023-05-22T06:00:20.277Z,17.9511
2023-05-22T06:01:22.393Z,17.8597
2023-05-22T06:02:23.982Z,17.5922
2023-05-22T06:03:27.590Z,17.5389
2023-05-22T06:04:25.374Z,17.5401
2023-05-22T06:06:27.931Z,17.8802
2023-05-22T06:07:29.117Z,17.9602
2023-05-22T06:08:30.329Z,17.6419
2023-05-22T06:09:31.771Z,17.5586
2023-05-22T06:10:32.997Z,17.7387
2023-05-22T06:11:34.812Z,17.4755
2023-05-22T06:12:36.249Z,17.4351
2023-05-22T06:13:37.978Z,17.7942
2023-05-22T06:14:39.523Z,17.9271
2023-05-22T06:15:41.448Z,18.0250
2023-05-22T06:16:44.323Z,18.3800
2023-05-22T06:17:44.360Z,18.3646
2023-05-22T06:18:44.445Z,18.3712
2023-05-22T06:19:45.940Z,18.1109
2023-05-22T06:20:47.249Z,17.9339
2023-05-22T06:21:51.410Z,17.7652
2023-05-22T06:22:50.644Z,17.8794
2023-05-22T06:23:52.623Z,18.1638
2023-05-22T06:24:53.824Z,18.4644
2023-05-22T06:25:55.180Z,18.6354
2023-05-22T06:26:57.276Z,18.4310
2023-05-22T06:27:59.501Z,18.7419
2023-05-22T06:29:03.000Z,19.0085
2023-05-22T06:31:03.624Z,18.5544
2023-05-22T06:32:04.530Z,18.4311
2023-05-22T06:33:06.195Z,18.7039
2023-05-22T06:34:07.720Z,18.6140
2023-05-22T06:35:08.230Z,18.5416
2023-05-22T06:36:08.284Z,18.4602
2023-05-22T06:37:10.322Z,18.1407
2023-05-22T06:38:11.575Z,18.2377
2023-05-22T06:42:45.201Z,18.3961
2023-05-22T06:43:46.881Z,18.4798
2023-05-22T06:45:48.913Z,18.4976
2023-05-22T06:48:49.700Z,18.6359
2023-05-22T06:49:50.748Z,18.9071
2023-05-22T06:50:52.728Z,19.0078
2023-05-22T06:51:54.385Z,18.7393
2023-05-22T06:52:55.024Z,18.6514
2023-05-22T06:54:56.404Z,19.0009
2023-05-22T06:55:57.810Z,19.3109
2023-05-22T06:57:59.490Z,18.9427
2023-05-22T06:59:00.825Z,19.2197
2023-05-22T07:00:02.525Z,18.9984
2023-05-22T07:02:05.782Z,19.6651
2023-05-22T07:03:07.293Z,19.1837
2023-05-22T07:04:09.251Z,19.2611
2023-05-22T07:05:09.290Z,18.9191
2023-05-22T07:06:11.577Z,19.1272
2023-05-22T07:07:14.181Z,19.1770
2023-05-22T07:10:17.118Z,19.2266
2023-05-22T07:11:19.119Z,19.3687
2023-05-22T07:12:20.397Z,18.9799
2023-05-22T07:13:21.916Z,19.2351
2023-05-22T07:14:23.757Z,19.2790
2023-05-22T07:15:24.975Z,19.0733
2023-05-22T07:16:26.267Z,19.0498
2023-05-22T07:17:26.969Z,19.4270
2023-05-22T07:20:31.778Z,19.5811
2023-05-22T07:21:33.704Z,19.7749
2023-05-22T07:22:35.194Z,19.9465
2023-05-22T07:23:36.426Z,19.9821
2023-05-22T07:25:38.091Z,19.8659
2023-05-22T07:26:39.031Z,19.9694
2023-05-22T07:27:40.286Z,20.1124
2023-05-22T07:28:41.979Z,20.1412
2023-05-22T07:29:43.152Z,20.3513
2023-05-22T07:30:44.500Z,20.0527
2023-05-22T07:31:45.323Z,20.2145
2023-05-22T07:32:45.390Z,20.2965
2023-05-22T07:33:46.444Z,19.8379
2023-05-22T07:34:48.036Z,20.1128
2023-05-22T07:35:49.453Z,20.7221
2023-05-22T07:36:50.462Z,20.3456
2023-05-22T07:37:52.075Z,20.3200
2023-05-22T07:38:53.884Z,20.0630
2023-05-22T07:39:54.258Z,20.1401
2023-05-22T07:40:56.378Z,19.9332
2023-05-22T07:41:58.812Z,20.2176
2023-05-22T07:42:58.170Z,20.1874
2023-05-22T07:43:58.286Z,20.3966
2023-05-22T07:45:00.130Z,20.5705
2023-05-22T07:46:02.138Z,21.1917
2023-05-22T07:47:02.850Z,20.9178
2023-05-22T07:48:02.933Z,20.4848
2023-05-22T07:49:03.656Z,20.8050
2023-05-22T07:50:04.408Z,20.7985
2023-05-22T07:51:05.853Z,20.5254
2023-05-22T07:52:07.674Z,20.9095
2023-05-22T07:53:08.279Z,20.7712
2023-05-22T07:54:09.598Z,20.7517
2023-05-22T07:55:09.664Z,20.4538
2023-05-22T07:56:11.567Z,20.6864
2023-05-22T07:57:13.622Z,20.4306
2023-05-22T07:58:16.535Z,20.1980
2023-05-22T07:59:17.517Z,20.5454
2023-05-22T08:00:19.687Z,21.0241
2023-05-22T08:01:20.302Z,21.3122
2023-05-22T08:02:22.342Z,21.5052
2023-05-22T08:03:24.378Z,21.5176
2023-05-22T08:04:23.954Z,21.0070
2023-05-22T08:05:24.902Z,20.9409
2023-05-22T08:06:25.350Z,21.5429
2023-05-22T08:07:27.333Z,21.8283
2023-05-22T08:08:31.699Z,22.5136
2023-05-22T08:09:31.226Z,22.8433
2023-05-22T08:10:46.504Z,21.9230
2023-05-22T08:12:04.789Z,21.2584
2023-05-22T08:13:04.868Z,21.4836
2023-05-22T08:14:07.050Z,21.1152
2023-05-22T08:15:08.822Z,21.1227
2023-05-22T08:16:11.000Z,20.9257
2023-05-22T08:17:11.963Z,20.8510
2023-05-22T08:18:14.152Z,21.1679
2023-05-22T08:19:15.710Z,22.2465
2023-05-22T08:20:17.380Z,22.7080
2023-05-22T08:21:19.181Z,22.5258
2023-05-22T08:22:21.134Z,22.5325
2023-05-22T08:23:22.561Z,22.3652
2023-05-22T08:24:23.778Z,21.9149
2023-05-22T08:25:25.422Z,21.6991
2023-05-22T08:26:26.662Z,21.5181
2023-05-22T08:27:28.398Z,21.5479
2023-05-22T08:28:30.006Z,21.8019
2023-05-22T08:29:30.623Z,21.9991
2023-05-22T08:30:30.828Z,22.5827
2023-05-22T08:31:32.334Z,21.8090
2023-05-22T08:32:32.590Z,21.7490
2023-05-22T08:33:34.056Z,21.4893
2023-05-22T08:34:35.457Z,21.5151
2023-05-22T08:35:37.153Z,21.8333
2023-05-22T08:36:38.713Z,22.1691
2023-05-22T08:37:40.011Z,21.9929
2023-05-22T08:38:41.769Z,22.0887
2023-05-22T08:39:43.305Z,22.1406
2023-05-22T08:40:46.466Z,22.3070
2023-05-22T08:41:46.539Z,21.7864
2023-05-22T08:42:48.340Z,21.6945
2023-05-22T08:43:50.186Z,21.9975
2023-05-22T08:44:51.687Z,22.3046
2023-05-22T08:45:53.300Z,22.8282
2023-05-22T08:46:54.957Z,22.8109
2023-05-22T08:47:56.979Z,22.3608
2023-05-22T08:48:59.017Z,22.6372
2023-05-22T08:49:59.781Z,21.8542
2023-05-22T08:51:00.077Z,21.8357
2023-05-22T08:52:01.542Z,22.1229
2023-05-22T08:53:02.647Z,22.5282
2023-05-22T08:54:02.868Z,21.9635
2023-05-22T08:55:04.336Z,22.0171
2023-05-22T08:56:06.144Z,22.3033
2023-05-22T08:57:07.793Z,22.2982
2023-05-22T08:58:08.432Z,22.0777
2023-05-22T08:59:09.770Z,22.1158
2023-05-22T09:00:10.238Z,22.6276
2023-05-22T09:01:12.085Z,22.1749
2023-05-22T09:02:13.924Z,22.8729
2023-05-22T09:03:15.189Z,22.6034
2023-05-22T09:04:17.316Z,22.6946
2023-05-22T09:05:19.106Z,22.5039
2023-05-22T09:06:20.981Z,22.5544
2023-05-22T09:07:22.797Z,22.7097
2023-05-22T09:08:24.843Z,22.8501
2023-05-22T09:09:26.386Z,22.5063
2023-05-22T09:10:26.861Z,22.6465
2023-05-22T09:11:28.670Z,22.8754
2023-05-22T09:12:29.933Z,23.4024
2023-05-22T09:13:31.870Z,22.9146
2023-05-22T09:14:33.181Z,23.2239
2023-05-22T09:15:34.852Z,22.9343
2023-05-22T09:16:35.626Z,23.3799
2023-05-22T09:17:37.874Z,23.3784
2023-05-22T09:18:39.243Z,23.4337
2023-05-22T09:19:40.477Z,23.3202
2023-05-22T09:20:41.419Z,23.0537
2023-05-22T09:21:41.895Z,23.2627
2023-05-22T09:22:43.505Z,22.8743
2023-05-22T09:23:45.310Z,23.1198
2023-05-22T09:24:47.022Z,23.2414
2023-05-22T09:25:48.967Z,23.3862
2023-05-22T09:26:51.024Z,23.4437
2023-05-22T09:27:52.650Z,24.1975
2023-05-22T09:28:53.978Z,24.6323
2023-05-22T09:29:55.809Z,24.0526
2023-05-22T09:30:56.284Z,24.1884
2023-05-22T09:31:56.535Z,23.8371
2023-05-22T09:32:58.682Z,24.2085
2023-05-22T09:33:59.102Z,24.5738
2023-05-22T09:35:00.850Z,24.7959
2023-05-22T09:36:01.878Z,23.6700
2023-05-22T09:37:03.766Z,23.7738
2023-05-22T09:38:04.792Z,23.4325
2023-05-22T09:39:06.995Z,23.7885
2023-05-22T09:40:07.652Z,23.2229
2023-05-22T09:41:09.684Z,23.3430
2023-05-22T09:42:11.213Z,23.5258
2023-05-22T09:43:11.412Z,24.4341
2023-05-22T09:44:12.538Z,24.9897
2023-05-22T09:45:13.904Z,24.4935
2023-05-22T09:46:14.922Z,24.3913
2023-05-22T09:47:16.843Z,24.2355
2023-05-22T09:48:17.161Z,24.1683
2023-05-22T09:49:19.311Z,23.8201
2023-05-22T09:50:21.511Z,23.5957
2023-05-22T09:51:23.261Z,23.6427
2023-05-22T09:52:23.498Z,23.4227
2023-05-22T09:53:25.231Z,23.8087
2023-05-22T09:54:27.065Z,24.0831
2023-05-22T09:55:27.265Z,24.2203
2023-05-22T09:56:38.486Z,24.1998
2023-05-22T09:57:29.586Z,23.9222
2023-05-22T09:58:31.273Z,23.9369
2023-05-22T09:59:32.781Z,24.3789
2023-05-22T10:00:34.501Z,24.5953
2023-05-22T10:01:34.886Z,24.4905
2023-05-22T10:02:35.706Z,25.1167
2023-05-22T10:03:37.446Z,25.8073
2023-05-22T10:04:39.495Z,25.2424
2023-05-22T10:05:39.859Z,24.2521
2023-05-22T10:06:41.620Z,23.9867
2023-05-22T10:07:43.666Z,23.3560
2023-05-22T10:08:44.083Z,23.1150
2023-05-22T10:09:46.135Z,24.0738
2023-05-22T10:10:47.374Z,24.2313
2023-05-22T10:11:49.262Z,25.0305
2023-05-22T10:12:51.127Z,24.4613
2023-05-22T10:13:53.328Z,24.1929
2023-05-22T10:14:54.312Z,23.9568
2023-05-22T10:15:56.193Z,23.7327
2023-05-22T10:16:57.858Z,23.6892
2023-05-22T10:17:59.434Z,23.9905
2023-05-22T10:19:01.092Z,24.0811
2023-05-22T10:20:00.950Z,24.3570
2023-05-22T10:21:02.179Z,24.5238
2023-05-22T10:22:02.434Z,24.7560
2023-05-22T10:23:04.119Z,24.9025
2023-05-22T10:24:04.925Z,25.2889
2023-05-22T10:25:08.516Z,25.1068
2023-05-22T10:26:08.020Z,25.0851
2023-05-22T10:27:09.374Z,24.6566
2023-05-22T10:30:13.506Z,24.2645
2023-05-22T10:31:14.921Z,24.7297
2023-05-22T10:32:16.462Z,25.4921
2023-05-22T10:33:17.006Z,26.3970
2023-05-22T10:34:17.535Z,25.0505
2023-05-22T10:35:19.248Z,24.8614
2023-05-22T10:36:21.279Z,24.4623
2023-05-22T10:37:22.564Z,24.2607
2023-05-22T10:38:24.173Z,24.8310
2023-05-22T10:39:24.650Z,25.2527
2023-05-22T10:40:27.034Z,26.3489
2023-05-22T10:41:28.582Z,27.0407
2023-05-22T10:42:30.328Z,26.0744
2023-05-22T10:43:30.408Z,25.8723
2023-05-22T10:44:30.889Z,26.4720
2023-05-22T10:45:32.146Z,26.3736
2023-05-22T10:46:32.549Z,25.3105
2023-05-22T10:47:32.929Z,24.9181
2023-05-22T10:48:33.993Z,25.2422
2023-05-22T10:49:35.386Z,25.6136
2023-05-22T10:50:36.733Z,24.8957
2023-05-22T10:51:38.512Z,25.5133
2023-05-22T10:52:39.937Z,25.1233
2023-05-22T10:53:41.653Z,25.2821
2023-05-22T10:54:43.107Z,25.4156
2023-05-22T10:55:44.769Z,25.2407
2023-05-22T10:56:46.471Z,25.1915
2023-05-22T10:57:48.115Z,25.7881
2023-05-22T10:58:49.931Z,26.2665
2023-05-22T10:59:51.468Z,26.8363
2023-05-22T11:00:53.130Z,26.0077
2023-05-22T11:01:53.997Z,27.2112
2023-05-22T11:03:00.812Z,27.4221
2023-05-22T11:04:57.385Z,25.8080
2023-05-22T11:05:59.276Z,27.0304
2023-05-22T11:07:00.638Z,28.1130
2023-05-22T11:08:00.904Z,26.9157
2023-05-22T11:09:02.806Z,26.0484
2023-05-22T11:10:03.781Z,25.5899
2023-05-22T11:11:04.025Z,25.4747
2023-05-22T11:12:04.550Z,25.9612
2023-05-22T11:13:05.512Z,25.8915
2023-05-22T11:14:07.458Z,26.2100
2023-05-22T11:15:08.307Z,25.6507
2023-05-22T11:16:09.678Z,26.5198
2023-05-22T11:17:11.527Z,26.5506
2023-05-22T11:18:11.993Z,26.3648
2023-05-22T11:20:13.716Z,25.4974
2023-05-22T11:22:13.851Z,25.3796
2023-05-22T11:23:14.714Z,25.7602
2023-05-22T11:24:16.052Z,25.8113
2023-05-22T11:25:16.194Z,25.7318
2023-05-22T11:26:16.294Z,25.3582
2023-05-22T11:27:16.710Z,25.5905
2023-05-22T11:28:18.282Z,25.6352
2023-05-22T11:29:19.916Z,25.8759
2023-05-22T11:30:21.362Z,25.5651
2023-05-22T11:31:23.316Z,25.5205
2023-05-22T11:32:25.103Z,26.1681
2023-05-22T11:33:26.873Z,26.2014
2023-05-22T11:34:27.780Z,25.7183
2023-05-22T11:35:29.198Z,25.1359
2023-05-22T11:36:30.638Z,25.1274
2023-05-22T11:37:32.288Z,25.7449
2023-05-22T11:38:33.943Z,25.8110
2023-05-22T11:39:34.423Z,25.8951
2023-05-22T11:40:35.642Z,25.7972
2023-05-22T11:41:35.828Z,26.0454
2023-05-22T11:42:36.187Z,25.9034
2023-05-22T11:43:37.259Z,26.6216
2023-05-22T11:44:39.340Z,27.1892
2023-05-22T11:45:40.094Z,27.0015
2023-05-22T11:46:41.735Z,26.9370
2023-05-22T11:47:43.506Z,27.0575
2023-05-22T11:48:45.578Z,26.4942
2023-05-22T11:49:45.922Z,27.1263
2023-05-22T11:50:47.647Z,27.9285
2023-05-22T11:51:48.652Z,28.1298
2023-05-22T11:52:49.604Z,27.5885
2023-05-22T11:53:50.374Z,28.1956
2023-05-22T11:54:51.678Z,27.0793
2023-05-22T11:55:52.784Z,26.7445
2023-05-22T11:56:54.493Z,26.4089
2023-05-22T11:57:56.013Z,26.6036
2023-05-22T11:58:56.202Z,26.1237
2023-05-22T11:59:56.948Z,26.8349
2023-05-22T12:00:57.060Z,27.0387
2023-05-22T12:01:58.063Z,27.3691
2023-05-22T12:02:59.404Z,26.4889
2023-05-22T12:04:00.035Z,26.1956
2023-05-22T12:05:01.338Z,26.0698
2023-05-22T12:06:03.146Z,26.2892
2023-05-22T12:07:04.211Z,26.9467
2023-05-22T12:08:04.823Z,26.2347
2023-05-22T12:09:06.810Z,26.8547
2023-05-22T12:10:08.954Z,27.3557
2023-05-22T12:11:10.356Z,26.9724
2023-05-22T12:12:10.992Z,27.4108
2023-05-22T12:13:11.002Z,27.5389
2023-05-22T12:14:11.720Z,27.4194
2023-05-22T12:15:13.692Z,27.3938
2023-05-22T12:16:14.289Z,27.3545
2023-05-22T12:17:14.831Z,27.1389
2023-05-22T12:18:14.835Z,27.8962
2023-05-22T12:19:16.068Z,27.9238
2023-05-22T12:20:17.949Z,29.0471
2023-05-22T12:21:18.616Z,29.5870
2023-05-22T12:22:19.732Z,28.5967
2023-05-22T12:23:20.475Z,28.6306
2023-05-22T12:24:21.274Z,27.2449
2023-05-22T12:25:21.337Z,27.7131
2023-05-22T12:26:23.501Z,28.5390
2023-05-22T12:27:24.676Z,29.3318
2023-05-22T12:28:26.681Z,27.7555
2023-05-22T12:29:28.585Z,27.4789
2023-05-22T12:30:30.472Z,28.3608
2023-05-22T12:31:32.604Z,28.2833
2023-05-22T12:32:32.701Z,27.2491
2023-05-22T12:33:34.857Z,27.7076
2023-05-22T12:34:36.469Z,26.4898
2023-05-22T12:35:38.073Z,26.6046
2023-05-22T12:36:38.340Z,26.7711
2023-05-22T12:37:40.413Z,26.9095
2023-05-22T12:38:40.946Z,26.9387
2023-05-22T12:39:41.912Z,26.8478
2023-05-22T12:40:43.694Z,28.0261
2023-05-22T12:41:44.282Z,28.4637
2023-05-22T12:42:45.356Z,27.4736
2023-05-22T12:43:47.397Z,27.6072
2023-05-22T12:44:49.009Z,28.7202
2023-05-22T12:45:50.657Z,28.8619
2023-05-22T12:46:52.186Z,28.4501
2023-05-22T12:47:53.297Z,27.8910
2023-05-22T12:48:55.211Z,26.5217
2023-05-22T12:49:56.615Z,25.7653
2023-05-22T12:50:57.016Z,25.4973
2023-05-22T12:51:57.716Z,24.9024
2023-05-22T12:52:57.812Z,24.8109
2023-05-22T12:53:58.945Z,25.0914
2023-05-22T12:55:00.377Z,26.3334
2023-05-22T12:56:00.670Z,26.9071
2023-05-22T12:57:02.716Z,27.1885
2023-05-22T12:58:02.736Z,27.4012
2023-05-22T12:59:04.835Z,26.8549
2023-05-22T13:00:05.082Z,26.9508
2023-05-22T13:01:06.554Z,27.2408
2023-05-22T13:02:07.948Z,26.3214
2023-05-22T13:03:09.573Z,26.5526
2023-05-22T13:04:11.042Z,27.7622
2023-05-22T13:05:11.517Z,28.1918
2023-05-22T13:06:13.151Z,27.8273
2023-05-22T13:07:14.181Z,27.6819
2023-05-22T13:08:14.370Z,26.6122
2023-05-22T13:09:14.771Z,27.0181
2023-05-22T13:10:16.096Z,26.7839
2023-05-22T13:11:17.347Z,27.7158
2023-05-22T13:12:17.832Z,28.5104
2023-05-22T13:13:18.770Z,27.7945
2023-05-22T13:14:20.545Z,28.6836
2023-05-22T13:15:22.109Z,27.4773
2023-05-22T13:16:22.918Z,27.0222
2023-05-22T13:17:24.520Z,27.8346
2023-05-22T13:18:25.088Z,28.1682
2023-05-22T13:19:27.347Z,27.8964
2023-05-22T13:20:27.912Z,28.8538
2023-05-22T13:21:29.079Z,28.5729
2023-05-22T13:22:29.965Z,28.2789
2023-05-22T13:24:30.283Z,27.9700
2023-05-22T13:25:30.937Z,28.2697
2023-05-22T13:26:31.173Z,28.4863
2023-05-22T13:27:33.942Z,27.4953
2023-05-22T13:28:33.939Z,26.9595
2023-05-22T13:29:35.336Z,27.1604
2023-05-22T13:30:36.836Z,27.6856
2023-05-22T13:33:41.087Z,27.4851
2023-05-22T13:35:42.140Z,27.8053
2023-05-22T13:36:43.379Z,28.3440
2023-05-22T13:37:45.492Z,28.8954
2023-05-22T13:39:45.659Z,28.1296
2023-05-22T13:40:48.194Z,27.6574
2023-05-22T13:41:45.955Z,27.4043
2023-05-22T13:42:46.128Z,26.3881
2023-05-22T13:43:47.550Z,26.8488
2023-05-22T13:45:48.958Z,26.1239
2023-05-22T13:46:50.435Z,25.5421
2023-05-22T13:47:51.839Z,25.5038
2023-05-22T13:48:53.579Z,24.8101
2023-05-22T13:49:54.149Z,24.7981
2023-05-22T13:50:55.565Z,24.9905
2023-05-22T13:51:57.727Z,25.2156
2023-05-22T13:52:57.910Z,27.1447
2023-05-22T13:53:58.171Z,28.2485
2023-05-22T13:54:59.697Z,28.3598
2023-05-22T13:56:01.207Z,27.6817
2023-05-22T13:57:02.868Z,27.6818
2023-05-22T13:58:04.263Z,27.8840
2023-05-22T13:59:09.005Z,28.1660
2023-05-22T14:00:06.482Z,28.9594
2023-05-22T14:01:06.653Z,29.5562
2023-05-22T14:02:07.917Z,29.6368
2023-05-22T14:03:09.088Z,30.8722
2023-05-22T14:04:09.073Z,29.2829
2023-05-22T14:05:09.949Z,28.0633
2023-05-22T14:06:12.613Z,28.0238
2023-05-22T14:07:13.636Z,28.6204
2023-05-22T14:08:15.515Z,29.0569
2023-05-22T14:09:17.008Z,30.4390
2023-05-22T14:10:18.430Z,28.3487
2023-05-22T14:11:20.216Z,27.9998
2023-05-22T14:12:20.928Z,27.1485
2023-05-22T14:13:22.378Z,26.2621
2023-05-22T14:14:24.564Z,25.7800
2023-05-22T14:15:26.503Z,25.4281
2023-05-22T14:16:27.877Z,25.4367
2023-05-22T14:17:29.179Z,26.5285
2023-05-22T14:18:30.569Z,27.0164
2023-05-22T14:19:32.987Z,27.1980
2023-05-22T14:20:33.316Z,27.4439
2023-05-22T14:21:35.348Z,27.9210
2023-05-22T14:22:47.959Z,28.1575
2023-05-22T14:25:06.713Z,28.5405
2023-05-22T14:26:08.569Z,28.6117
2023-05-22T14:27:10.849Z,26.1990